createdAt,value
2019-04-23T00:02:29.146Z,5.42
2019-04-23T00:05:02.737Z,6.97
2019-04-23T00:10:12.313Z,7.65
2019-04-23T00:12:43.666Z,7.45
2019-04-23T00:15:07.563Z,6.37
2019-04-23T00:20:07.828Z,5.55
2019-04-23T00:22:50.070Z,7.90
2019-04-23T00:25:33.150Z,7.58
2019-04-23T00:27:51.861Z,7.17
2019-04-23T00:30:18.847Z,5.45
2019-04-23T00:32:48.067Z,9.75
2019-04-23T00:35:18.100Z,5.53
2019-04-23T00:37:49.952Z,8.48
2019-04-23T00:40:27.067Z,6.78
2019-04-23T00:43:08.613Z,6.62
2019-04-23T00:45:28.719Z,5.20
2019-04-23T00:52:57.616Z,7.40
2019-04-23T00:55:29.469Z,5.58
2019-04-23T00:58:08.189Z,8.33
2019-04-23T01:03:05.776Z,6.37
2019-04-23T01:05:37.601Z,5.55
2019-04-23T01:08:08.282Z,4.65
2019-04-23T01:10:52.373Z,5.22
2019-04-23T01:15:53.197Z,7.33
2019-04-23T01:20:52.424Z,7.15
2019-04-23T01:23:16.010Z,6.47
2019-04-23T01:25:58.155Z,5.33
2019-04-23T01:31:14.674Z,8.55
2019-04-23T01:33:51.543Z,5.90
2019-04-23T01:36:23.370Z,7.08
2019-04-23T01:38:55.005Z,6.10
2019-04-23T01:41:20.476Z,5.37
2019-04-23T01:43:47.611Z,5.58
2019-04-23T01:46:23.426Z,5.90
2019-04-23T01:48:53.524Z,7.33
2019-04-23T01:51:26.472Z,4.35
2019-04-23T01:53:51.517Z,4.80
2019-04-23T01:56:24.291Z,6.42
2019-04-23T01:58:59.207Z,5.08
2019-04-23T02:01:25.547Z,6.22
2019-04-23T02:06:25.152Z,5.28
2019-04-23T02:08:58.565Z,6.78
2019-04-23T02:11:25.640Z,6.78
2019-04-23T02:14:05.428Z,6.15
2019-04-23T02:16:30.658Z,5.25
2019-04-23T02:19:07.742Z,5.20
2019-04-23T02:21:38.431Z,6.65
2019-04-23T02:24:08.671Z,13.98
2019-04-23T02:26:34.132Z,6.92
2019-04-23T02:34:21.683Z,5.25
2019-04-23T02:39:12.216Z,6.55
2019-04-23T02:41:54.404Z,6.33
2019-04-23T02:46:59.357Z,5.65
2019-04-23T02:52:10.990Z,7.30
2019-04-23T02:56:51.450Z,6.85
2019-04-23T03:02:15.470Z,7.00
2019-04-23T03:04:47.716Z,4.70
2019-04-23T03:07:02.910Z,5.47
2019-04-23T03:14:33.424Z,4.25
2019-04-23T03:17:09.666Z,7.62
2019-04-23T03:22:35.602Z,5.47
2019-04-23T03:25:10.259Z,7.97
2019-04-23T03:27:31.521Z,4.60
2019-04-23T03:37:35.611Z,5.45
2019-04-23T03:42:38.752Z,7.08
2019-04-23T03:45:08.021Z,8.05
2019-04-23T03:47:32.024Z,8.65
2019-04-23T03:50:09.209Z,6.45
2019-04-23T03:52:36.982Z,7.33
2019-04-23T03:55:06.256Z,6.85
2019-04-23T04:05:04.050Z,7.03
2019-04-23T04:09:59.315Z,9.43
2019-04-23T04:12:39.870Z,5.55
2019-04-23T04:17:55.620Z,7.35
2019-04-23T04:20:19.619Z,6.42
2019-04-23T04:25:15.917Z,5.50
2019-04-23T04:27:54.505Z,5.00
2019-04-23T04:32:59.131Z,4.92
2019-04-23T04:43:02.219Z,9.85
2019-04-23T04:45:30.367Z,7.53
2019-04-23T04:47:45.527Z,5.85
2019-04-23T04:50:22.228Z,6.62
2019-04-23T04:53:00.762Z,6.92
2019-04-23T04:55:23.596Z,9.23
2019-04-23T04:57:56.696Z,6.33
2019-04-23T05:00:32.927Z,7.65
2019-04-23T05:10:32.611Z,7.22
2019-04-23T05:13:12.094Z,5.22
2019-04-23T05:15:23.502Z,5.05
2019-04-23T05:20:37.307Z,4.33
2019-04-23T05:23:09.104Z,6.62
2019-04-23T05:25:32.674Z,9.03
2019-04-23T05:28:08.162Z,7.50
2019-04-23T05:30:38.372Z,7.55
2019-04-23T05:36:04.346Z,5.37
2019-04-23T05:38:21.738Z,7.42
2019-04-23T05:40:52.021Z,5.33
2019-04-23T05:43:12.637Z,7.37
2019-04-23T05:45:42.945Z,4.75
2019-04-23T05:50:51.901Z,5.28
2019-04-23T05:53:20.026Z,5.78
2019-04-23T05:55:49.386Z,4.95
2019-04-23T05:58:23.260Z,5.80
2019-04-23T06:00:54.514Z,8.53
2019-04-23T06:03:22.917Z,6.28
2019-04-23T06:05:58.250Z,6.47
2019-04-23T06:10:55.656Z,7.85
2019-04-23T06:13:26.283Z,8.15
2019-04-23T06:15:59.593Z,8.75
2019-04-23T06:18:33.197Z,7.25
2019-04-23T06:26:19.867Z,5.42
2019-04-23T06:28:46.945Z,4.70
2019-04-23T06:31:01.989Z,6.28
2019-04-23T06:33:34.144Z,10.23
2019-04-23T06:36:05.568Z,6.42
2019-04-23T06:38:55.005Z,6.20
2019-04-23T06:41:12.576Z,6.87
2019-04-23T06:43:54.671Z,7.70
2019-04-23T06:46:21.289Z,9.00
2019-04-23T06:48:47.018Z,6.50
2019-04-23T06:51:27.151Z,6.72
2019-04-23T06:53:55.077Z,7.35
2019-04-23T06:56:25.006Z,10.72
2019-04-23T06:58:50.435Z,6.87
2019-04-23T07:01:17.688Z,6.97
2019-04-23T07:04:02.954Z,6.53
2019-04-23T07:09:09.896Z,5.30
2019-04-23T07:13:57.605Z,5.15
2019-04-23T07:16:38.441Z,7.12
2019-04-23T07:19:05.086Z,6.62
2019-04-23T07:21:42.093Z,6.03
2019-04-23T07:29:04.955Z,6.90
2019-04-23T07:31:44.498Z,9.15
2019-04-23T07:34:05.519Z,8.20
2019-04-23T07:36:38.895Z,8.98
2019-04-23T07:41:56.869Z,7.95
2019-04-23T07:44:38.370Z,9.43
2019-04-23T07:47:15.682Z,6.42
2019-04-23T07:52:11.053Z,6.90
2019-04-23T07:54:39.992Z,7.95
2019-04-23T07:57:14.966Z,8.18
2019-04-23T07:59:42.999Z,9.30
2019-04-23T08:02:14.181Z,8.40
2019-04-23T08:04:53.055Z,7.33
2019-04-23T08:12:19.336Z,6.85
2019-04-23T08:14:46.927Z,9.60
2019-04-23T08:17:10.764Z,5.90
2019-04-23T08:19:49.420Z,6.78
2019-04-23T08:25:00.406Z,13.93
2019-04-23T08:27:27.980Z,8.60
2019-04-23T08:30:00.283Z,8.55
2019-04-23T08:32:21.266Z,6.47
2019-04-23T08:35:13.747Z,7.58
2019-04-23T08:37:49.695Z,10.25
2019-04-23T08:40:01.871Z,10.82
2019-04-23T08:48:04.175Z,8.93
2019-04-23T08:50:27.449Z,7.47
2019-04-23T08:53:03.844Z,8.10
2019-04-23T08:55:34.621Z,11.25
2019-04-23T08:57:55.450Z,6.45
2019-04-23T09:00:32.642Z,5.20
2019-04-23T09:03:06.365Z,9.65
2019-04-23T09:08:15.431Z,8.28
2019-04-23T09:10:41.046Z,9.08
2019-04-23T09:13:35.307Z,10.13
2019-04-23T09:15:48.306Z,10.45
2019-04-23T09:18:15.797Z,8.78
2019-04-23T09:20:37.466Z,8.90
2019-04-23T09:23:13.298Z,5.80
2019-04-23T09:28:31.113Z,8.20
2019-04-23T09:33:36.236Z,7.42
2019-04-23T09:36:23.855Z,5.92
2019-04-23T09:44:41.060Z,6.15
2019-04-23T09:49:35.734Z,6.15
2019-04-23T09:52:11.181Z,9.65
2019-04-23T09:56:57.086Z,10.10
2019-04-23T09:59:39.129Z,11.08
2019-04-23T10:01:54.123Z,6.20
2019-04-23T10:04:23.276Z,7.92
2019-04-23T10:06:49.448Z,11.70
2019-04-23T10:09:12.663Z,6.37
2019-04-23T10:11:43.009Z,8.58
2019-04-23T10:14:12.526Z,8.05
2019-04-23T10:16:43.199Z,8.53
2019-04-23T10:19:12.607Z,11.30
2019-04-23T10:21:43.749Z,7.08
2019-04-23T10:24:13.052Z,8.15
2019-04-23T10:26:43.803Z,7.85
2019-04-23T10:29:15.937Z,9.20
2019-04-23T10:31:46.082Z,9.40
2019-04-23T10:34:16.898Z,9.18
2019-04-23T10:36:47.394Z,9.83
2019-04-23T10:39:23.321Z,8.15
2019-04-23T10:41:48.795Z,8.00
2019-04-23T10:44:21.362Z,9.78
2019-04-23T10:50:17.278Z,6.83
2019-04-23T10:52:56.165Z,8.93
2019-04-23T10:55:11.974Z,7.92
2019-04-23T10:57:49.461Z,6.30
2019-04-23T11:00:19.808Z,5.58
2019-04-23T11:02:47.602Z,5.92
2019-04-23T11:05:33.244Z,5.33
2019-04-23T11:07:41.964Z,6.00
2019-04-23T11:10:21.905Z,9.95
2019-04-23T11:15:32.208Z,5.55
2019-04-23T11:22:56.775Z,5.72
2019-04-23T11:30:45.307Z,6.80
2019-04-23T11:40:37.010Z,5.12
2019-04-23T11:45:59.216Z,3.67
2019-04-23T11:58:21.889Z,6.05
2019-04-23T12:01:23.638Z,6.03
2019-04-23T12:03:59.666Z,5.78
2019-04-23T12:06:25.067Z,6.53
2019-04-23T12:08:56.316Z,6.05
2019-04-23T12:11:52.697Z,9.00
2019-04-23T12:14:37.301Z,8.18
2019-04-23T12:17:07.881Z,5.53
2019-04-23T12:22:03.559Z,5.62
2019-04-23T12:24:58.846Z,6.83
2019-04-23T12:27:00.127Z,5.95
2019-04-23T12:29:33.178Z,5.75
2019-04-23T12:32:15.580Z,7.08
2019-04-23T12:34:47.055Z,4.92
2019-04-23T12:37:15.076Z,9.55
2019-04-23T12:39:45.004Z,4.83
2019-04-23T12:42:39.111Z,7.67
2019-04-23T12:44:51.564Z,5.47
2019-04-23T12:47:27.510Z,5.90
2019-04-23T12:52:17.615Z,4.87
2019-04-23T12:54:58.999Z,4.90
2019-04-23T12:57:17.431Z,4.83
2019-04-23T12:59:49.860Z,8.60
2019-04-23T13:02:27.339Z,7.35
2019-04-23T13:07:26.440Z,5.33
2019-04-23T13:10:09.666Z,5.20
2019-04-23T13:12:40.000Z,6.03
2019-04-23T13:15:05.742Z,5.95
2019-04-23T13:17:39.721Z,7.62
2019-04-23T13:20:00.200Z,7.28
2019-04-23T13:22:39.851Z,5.67
2019-04-23T13:25:03.536Z,6.60
2019-04-23T13:35:28.196Z,5.12
2019-04-23T13:37:54.543Z,2.95
2019-04-23T13:40:24.473Z,4.58
2019-04-23T13:42:55.159Z,4.28
2019-04-23T13:48:03.218Z,5.08
2019-04-23T13:50:30.789Z,3.60
2019-04-23T13:53:08.133Z,3.83
2019-04-23T13:55:15.298Z,5.78
2019-04-23T13:58:07.424Z,3.47
2019-04-23T14:00:35.086Z,4.92
2019-04-23T14:03:09.773Z,3.42
2019-04-23T14:05:29.662Z,5.87
2019-04-23T14:08:00.879Z,3.47
2019-04-23T14:13:16.987Z,4.70
2019-04-23T14:15:41.250Z,2.62
2019-04-23T14:18:27.339Z,2.90
2019-04-23T14:20:32.255Z,5.95
2019-04-23T14:25:50.621Z,2.72
2019-04-23T14:28:26.302Z,3.45
2019-04-23T14:30:46.771Z,3.45
2019-04-23T14:33:17.719Z,3.15
2019-04-23T14:35:46.710Z,1.98
2019-04-23T14:38:29.762Z,3.75
2019-04-23T14:46:33.738Z,1.80
2019-04-23T14:48:39.255Z,1.40
2019-04-23T14:51:11.088Z,1.60
2019-04-23T14:53:27.160Z,1.82
2019-04-23T14:58:47.540Z,3.08
2019-04-23T15:01:25.003Z,2.52
2019-04-23T15:11:20.897Z,1.50
2019-04-23T15:13:44.795Z,2.30
2019-04-23T15:16:17.017Z,1.90
2019-04-23T15:19:02.355Z,2.42
2019-04-23T15:24:00.935Z,3.40
2019-04-23T15:28:36.554Z,2.42
2019-04-23T15:31:28.501Z,1.70
2019-04-23T15:34:10.697Z,1.92
2019-04-23T15:36:47.200Z,2.15
2019-04-23T15:41:34.683Z,2.75
2019-04-23T15:44:07.383Z,4.03
2019-04-23T15:46:35.495Z,2.12
2019-04-23T15:51:35.170Z,2.52
2019-04-23T15:54:14.437Z,1.50
2019-04-23T15:56:44.620Z,1.50
2019-04-23T16:01:34.057Z,1.87
2019-04-23T16:03:41.826Z,1.37
2019-04-23T16:06:13.232Z,1.37
2019-04-23T16:16:46.398Z,1.70
2019-04-23T16:22:00.186Z,2.55
2019-04-23T16:24:43.304Z,1.45
2019-04-23T16:27:04.453Z,2.90
2019-04-23T16:29:32.782Z,2.02
2019-04-23T16:32:22.533Z,2.40
2019-04-23T16:36:59.495Z,1.65
2019-04-23T16:39:31.427Z,2.85
2019-04-23T16:42:09.992Z,2.77
2019-04-23T16:47:16.840Z,2.00
2019-04-23T16:50:03.164Z,1.17
2019-04-23T16:52:12.122Z,6.47
2019-04-23T16:54:40.784Z,3.15
2019-04-23T16:57:21.529Z,3.27
2019-04-23T16:59:48.696Z,1.65
2019-04-23T17:02:14.824Z,2.08
2019-04-23T17:07:06.893Z,1.65
2019-04-23T17:09:51.174Z,2.25
2019-04-23T17:12:15.068Z,3.67
2019-04-23T17:14:49.683Z,2.87
2019-04-23T17:17:13.249Z,1.67
2019-04-23T17:19:50.390Z,3.05
2019-04-23T17:22:17.616Z,3.70
2019-04-23T17:24:59.419Z,3.90
2019-04-23T17:27:23.609Z,2.80
2019-04-23T17:29:58.910Z,2.37
2019-04-23T17:32:28.324Z,2.87
2019-04-23T17:37:38.584Z,2.67
2019-04-23T17:40:23.045Z,5.17
2019-04-23T17:42:55.508Z,3.37
2019-04-23T17:45:38.521Z,3.70
2019-04-23T17:48:08.783Z,2.20
2019-04-23T17:53:19.879Z,3.87
2019-04-23T17:56:01.081Z,3.72
2019-04-23T17:58:26.851Z,3.15
2019-04-23T18:01:05.586Z,4.42
2019-04-23T18:03:27.106Z,3.25
2019-04-23T18:06:14.214Z,5.35
2019-04-23T18:08:26.802Z,8.45
2019-04-23T18:16:18.985Z,3.02
2019-04-23T18:18:42.224Z,4.58
2019-04-23T18:21:36.255Z,5.50
2019-04-23T18:24:03.003Z,2.72
2019-04-23T18:26:36.337Z,4.67
2019-04-23T18:29:19.286Z,7.35
2019-04-23T18:31:56.202Z,4.10
2019-04-23T18:34:45.407Z,6.45
2019-04-23T18:37:01.834Z,7.42
2019-04-23T18:39:38.955Z,5.20
2019-04-23T18:42:11.528Z,5.40
2019-04-23T18:44:42.145Z,4.97
2019-04-23T18:47:06.723Z,6.95
2019-04-23T18:49:40.905Z,3.85
2019-04-23T18:52:20.929Z,3.77
2019-04-23T19:02:35.213Z,4.55
2019-04-23T19:07:43.014Z,4.80
2019-04-23T19:10:29.180Z,7.17
2019-04-23T19:13:07.684Z,5.50
2019-04-23T19:17:51.635Z,7.83
2019-04-23T19:20:39.917Z,9.38
2019-04-23T19:25:22.303Z,6.00
2019-04-23T19:27:59.270Z,12.28
2019-04-23T19:30:43.011Z,10.18
2019-04-23T19:33:05.753Z,10.30
2019-04-23T19:35:59.717Z,13.55
2019-04-23T19:38:12.949Z,13.90
2019-04-23T19:40:48.817Z,10.98
2019-04-23T19:43:12.072Z,7.40
2019-04-23T19:45:50.190Z,10.53
2019-04-23T19:48:19.306Z,6.90
2019-04-23T19:50:55.571Z,4.30
2019-04-23T19:53:33.767Z,7.15
2019-04-23T19:56:00.539Z,5.95
2019-04-23T19:58:26.150Z,9.03
2019-04-23T20:05:57.201Z,4.80
2019-04-23T20:08:34.041Z,8.40
2019-04-23T20:10:54.608Z,9.65
2019-04-23T20:13:32.493Z,6.15
2019-04-23T20:18:42.425Z,4.78
2019-04-23T20:24:02.968Z,3.98
2019-04-23T20:29:01.981Z,7.78
2019-04-23T20:31:33.486Z,3.80
2019-04-23T20:32:16.803Z,5.45
2019-04-23T20:39:06.178Z,3.42
2019-04-23T20:42:07.802Z,5.62
2019-04-23T20:47:03.376Z,5.92
2019-04-23T20:49:34.649Z,5.67
2019-04-23T20:52:04.652Z,7.17
2019-04-23T20:57:24.703Z,2.98
2019-04-23T21:00:02.051Z,3.42
2019-04-23T21:02:42.101Z,4.97
2019-04-23T21:05:03.585Z,3.30
2019-04-23T21:07:31.264Z,5.65
2019-04-23T21:10:09.616Z,4.67
2019-04-23T21:12:43.250Z,5.90
2019-04-23T21:15:04.873Z,4.08
2019-04-23T21:17:41.896Z,3.70
2019-04-23T21:20:08.726Z,5.95
2019-04-23T21:22:37.871Z,4.15
2019-04-23T21:25:14.452Z,3.90
2019-04-23T21:27:46.466Z,5.28
2019-04-23T21:30:32.951Z,5.12
2019-04-23T21:32:49.587Z,5.62
2019-04-23T21:35:16.915Z,5.20
2019-04-23T21:37:53.723Z,4.47
2019-04-23T21:43:10.482Z,5.30
2019-04-23T21:45:56.931Z,5.60
2019-04-23T21:50:49.042Z,5.62
2019-04-23T21:53:06.848Z,6.25
2019-04-23T21:55:54.313Z,5.62
2019-04-23T21:58:17.292Z,4.08
2019-04-23T22:00:55.083Z,3.87
2019-04-23T22:03:18.189Z,6.78
2019-04-23T22:05:51.188Z,5.28
2019-04-23T22:08:16.995Z,5.42
2019-04-23T22:11:00.504Z,7.47
2019-04-23T22:13:50.802Z,5.17
2019-04-23T22:16:04.235Z,4.25
2019-04-23T22:18:23.635Z,4.95
2019-04-23T22:25:56.692Z,6.70
2019-04-23T22:28:30.057Z,7.40
2019-04-23T22:33:24.992Z,4.28
2019-04-23T22:36:06.264Z,3.50
2019-04-23T22:38:26.312Z,7.10
2019-04-23T22:41:10.061Z,5.55
2019-04-23T22:43:30.745Z,3.05
2019-04-23T22:48:34.275Z,4.45
2019-04-23T22:51:10.888Z,3.33
2019-04-23T22:53:46.044Z,5.37
2019-04-23T22:58:44.399Z,4.75
2019-04-23T23:03:50.932Z,5.30
2019-04-23T23:06:29.571Z,3.22
2019-04-23T23:08:59.883Z,3.33
2019-04-23T23:11:22.614Z,3.77
2019-04-23T23:14:10.143Z,4.53
2019-04-23T23:16:24.562Z,2.52
2019-04-23T23:19:14.889Z,4.28
2019-04-23T23:21:31.063Z,3.40
2019-04-23T23:23:59.426Z,5.65
2019-04-23T23:26:36.085Z,2.77
2019-04-23T23:29:13.063Z,3.47
2019-04-23T23:31:29.514Z,2.70
2019-04-23T23:34:02.607Z,2.20
2019-04-23T23:36:38.613Z,2.98
2019-04-23T23:39:05.308Z,1.98
2019-04-23T23:49:14.132Z,1.92
2019-04-23T23:51:43.579Z,4.67
2019-04-23T23:54:08.224Z,4.20
2019-04-23T23:56:47.770Z,2.75
2019-04-23T23:59:16.138Z,1.60
